sensor_id;sensor_type;location;lat;lon;timestamp;P1;durP1;ratioP1;P2;durP2;ratioP2
3747;SDS011;1889;50.058;8.688;2022-10-31T00:01:39;7.78;;;5.40;;
3747;SDS011;1889;50.058;8.688;2022-10-31T00:04:09;8.13;;;5.70;;
3747;SDS011;1889;50.058;8.688;2022-10-31T00:06:38;10.50;;;5.80;;
3747;SDS011;1889;50.058;8.688;2022-10-31T00:09:09;5.90;;;4.72;;
3747;SDS011;1889;50.058;8.688;2022-10-31T00:11:39;9.38;;;5.65;;
3747;SDS011;1889;50.058;8.688;2022-10-31T00:14:08;8.48;;;5.60;;
3747;SDS011;1889;50.058;8.688;2022-10-31T00:16:37;7.15;;;5.22;;
3747;SDS011;1889;50.058;8.688;2022-10-31T00:19:08;6.22;;;5.08;;
3747;SDS011;1889;50.058;8.688;2022-10-31T00:21:37;12.23;;;5.33;;
3747;SDS011;1889;50.058;8.688;2022-10-31T00:24:06;8.20;;;5.17;;
3747;SDS011;1889;50.058;8.688;2022-10-31T00:26:36;7.33;;;4.62;;
3747;SDS011;1889;50.058;8.688;2022-10-31T00:29:05;5.65;;;4.55;;
3747;SDS011;1889;50.058;8.688;2022-10-31T00:31:35;8.20;;;5.22;;
3747;SDS011;1889;50.058;8.688;2022-10-31T00:34:04;5.97;;;4.65;;
3747;SDS011;1889;50.058;8.688;2022-10-31T00:36:33;7.87;;;5.05;;
3747;SDS011;1889;50.058;8.688;2022-10-31T00:39:03;6.83;;;4.37;;
3747;SDS011;1889;50.058;8.688;2022-10-31T00:41:32;9.35;;;4.30;;
3747;SDS011;1889;50.058;8.688;2022-10-31T00:44:01;8.78;;;5.28;;
3747;SDS011;1889;50.058;8.688;2022-10-31T00:46:31;7.25;;;4.55;;
3747;SDS011;1889;50.058;8.688;2022-10-31T00:49:00;5.97;;;4.60;;
3747;SDS011;1889;50.058;8.688;2022-10-31T00:51:29;8.35;;;4.92;;
3747;SDS011;1889;50.058;8.688;2022-10-31T00:53:59;8.00;;;4.83;;
3747;SDS011;1889;50.058;8.688;2022-10-31T00:56:28;7.30;;;4.62;;
3747;SDS011;1889;50.058;8.688;2022-10-31T00:58:57;7.78;;;4.60;;
3747;SDS011;1889;50.058;8.688;2022-10-31T01:01:27;5.47;;;4.20;;
3747;SDS011;1889;50.058;8.688;2022-10-31T01:03:56;9.40;;;4.33;;
3747;SDS011;1889;50.058;8.688;2022-10-31T01:06:28;8.08;;;4.70;;
3747;SDS011;1889;50.058;8.688;2022-10-31T01:08:56;10.93;;;4.85;;
3747;SDS011;1889;50.058;8.688;2022-10-31T01:11:26;8.25;;;4.28;;
3747;SDS011;1889;50.058;8.688;2022-10-31T01:13:55;6.12;;;4.70;;
3747;SDS011;1889;50.058;8.688;2022-10-31T01:16:25;9.23;;;5.10;;
3747;SDS011;1889;50.058;8.688;2022-10-31T01:18:58;9.00;;;4.95;;
3747;SDS011;1889;50.058;8.688;2022-10-31T01:21:28;7.10;;;4.47;;
3747;SDS011;1889;50.058;8.688;2022-10-31T01:23:58;5.25;;;4.30;;
3747;SDS011;1889;50.058;8.688;2022-10-31T01:26:30;9.03;;;4.28;;
3747;SDS011;1889;50.058;8.688;2022-10-31T01:29:02;8.78;;;4.40;;
3747;SDS011;1889;50.058;8.688;2022-10-31T01:31:34;6.85;;;4.60;;
3747;SDS011;1889;50.058;8.688;2022-10-31T01:34:04;5.55;;;3.80;;
3747;SDS011;1889;50.058;8.688;2022-10-31T01:36:35;8.93;;;4.35;;
3747;SDS011;1889;50.058;8.688;2022-10-31T01:39:10;5.08;;;4.25;;
3747;SDS011;1889;50.058;8.688;2022-10-31T01:41:41;8.78;;;4.20;;
3747;SDS011;1889;50.058;8.688;2022-10-31T01:47:36;5.55;;;4.28;;
3747;SDS011;1889;50.058;8.688;2022-10-31T01:49:39;8.58;;;4.58;;
3747;SDS011;1889;50.058;8.688;2022-10-31T01:52:14;6.25;;;4.50;;
3747;SDS011;1889;50.058;8.688;2022-10-31T01:54:51;6.85;;;4.22;;
3747;SDS011;1889;50.058;8.688;2022-10-31T01:57:35;8.90;;;4.80;;
3747;SDS011;1889;50.058;8.688;2022-10-31T02:00:08;5.35;;;4.20;;
3747;SDS011;1889;50.058;8.688;2022-10-31T02:02:38;9.53;;;5.15;;
3747;SDS011;1889;50.058;8.688;2022-10-31T02:05:09;7.03;;;3.75;;
3747;SDS011;1889;50.058;8.688;2022-10-31T02:10:20;6.78;;;4.55;;
3747;SDS011;1889;50.058;8.688;2022-10-31T02:12:55;8.83;;;4.42;;
3747;SDS011;1889;50.058;8.688;2022-10-31T02:15:26;5.60;;;4.40;;
3747;SDS011;1889;50.058;8.688;2022-10-31T02:17:58;8.18;;;4.40;;
3747;SDS011;1889;50.058;8.688;2022-10-31T02:20:41;8.58;;;4.78;;
3747;SDS011;1889;50.058;8.688;2022-10-31T02:29:01;6.40;;;4.80;;
3747;SDS011;1889;50.058;8.688;2022-10-31T02:34:28;6.40;;;3.92;;
3747;SDS011;1889;50.058;8.688;2022-10-31T02:42:43;6.47;;;3.75;;
3747;SDS011;1889;50.058;8.688;2022-10-31T02:45:30;4.17;;;3.77;;
3747;SDS011;1889;50.058;8.688;2022-10-31T02:48:08;9.90;;;4.80;;
3747;SDS011;1889;50.058;8.688;2022-10-31T02:50:43;5.53;;;4.30;;
3747;SDS011;1889;50.058;8.688;2022-10-31T02:53:15;6.03;;;3.90;;
3747;SDS011;1889;50.058;8.688;2022-10-31T02:55:46;7.08;;;4.28;;
3747;SDS011;1889;50.058;8.688;2022-10-31T02:58:18;4.53;;;3.98;;
3747;SDS011;1889;50.058;8.688;2022-10-31T03:01:17;8.40;;;4.78;;
3747;SDS011;1889;50.058;8.688;2022-10-31T03:09:04;6.58;;;4.55;;
3747;SDS011;1889;50.058;8.688;2022-10-31T03:11:32;6.72;;;5.05;;
3747;SDS011;1889;50.058;8.688;2022-10-31T03:14:09;6.50;;;4.70;;
3747;SDS011;1889;50.058;8.688;2022-10-31T03:16:46;7.92;;;4.72;;
3747;SDS011;1889;50.058;8.688;2022-10-31T03:19:23;9.15;;;4.50;;
3747;SDS011;1889;50.058;8.688;2022-10-31T03:22:06;10.30;;;4.58;;
3747;SDS011;1889;50.058;8.688;2022-10-31T03:24:37;6.15;;;4.33;;
3747;SDS011;1889;50.058;8.688;2022-10-31T03:27:08;7.20;;;4.25;;
3747;SDS011;1889;50.058;8.688;2022-10-31T03:29:40;7.25;;;4.83;;
3747;SDS011;1889;50.058;8.688;2022-10-31T03:32:13;8.03;;;4.30;;
3747;SDS011;1889;50.058;8.688;2022-10-31T03:34:50;5.22;;;4.30;;
3747;SDS011;1889;50.058;8.688;2022-10-31T03:37:24;5.55;;;4.45;;
3747;SDS011;1889;50.058;8.688;2022-10-31T03:39:55;8.48;;;5.28;;
3747;SDS011;1889;50.058;8.688;2022-10-31T03:42:29;7.67;;;4.78;;
3747;SDS011;1889;50.058;8.688;2022-10-31T03:45:01;7.92;;;4.75;;
3747;SDS011;1889;50.058;8.688;2022-10-31T03:47:32;6.87;;;4.45;;
3747;SDS011;1889;50.058;8.688;2022-10-31T03:50:06;9.95;;;4.33;;
3747;SDS011;1889;50.058;8.688;2022-10-31T03:53:03;6.80;;;4.47;;
3747;SDS011;1889;50.058;8.688;2022-10-31T03:55:28;7.60;;;4.80;;
3747;SDS011;1889;50.058;8.688;2022-10-31T04:00:39;6.55;;;4.55;;
3747;SDS011;1889;50.058;8.688;2022-10-31T04:03:20;5.83;;;4.30;;
3747;SDS011;1889;50.058;8.688;2022-10-31T04:05:46;6.22;;;4.97;;
3747;SDS011;1889;50.058;8.688;2022-10-31T04:08:19;5.90;;;4.22;;
3747;SDS011;1889;50.058;8.688;2022-10-31T04:10:51;7.03;;;4.33;;
3747;SDS011;1889;50.058;8.688;2022-10-31T04:13:24;6.20;;;4.17;;
3747;SDS011;1889;50.058;8.688;2022-10-31T04:15:55;8.43;;;4.30;;
3747;SDS011;1889;50.058;8.688;2022-10-31T04:18:25;6.28;;;4.40;;
3747;SDS011;1889;50.058;8.688;2022-10-31T04:21:02;7.30;;;4.47;;
3747;SDS011;1889;50.058;8.688;2022-10-31T04:23:35;7.35;;;4.58;;
3747;SDS011;1889;50.058;8.688;2022-10-31T04:26:05;6.12;;;4.00;;
3747;SDS011;1889;50.058;8.688;2022-10-31T04:28:34;7.45;;;4.70;;
3747;SDS011;1889;50.058;8.688;2022-10-31T04:31:03;5.72;;;4.33;;
3747;SDS011;1889;50.058;8.688;2022-10-31T04:33:33;8.33;;;4.75;;
3747;SDS011;1889;50.058;8.688;2022-10-31T04:36:02;7.05;;;4.15;;
3747;SDS011;1889;50.058;8.688;2022-10-31T04:38:32;10.15;;;4.83;;
3747;SDS011;1889;50.058;8.688;2022-10-31T04:41:01;7.92;;;4.65;;
3747;SDS011;1889;50.058;8.688;2022-10-31T04:43:30;4.92;;;4.35;;
3747;SDS011;1889;50.058;8.688;2022-10-31T04:46:00;4.90;;;4.37;;
3747;SDS011;1889;50.058;8.688;2022-10-31T04:48:29;18.70;;;5.15;;
3747;SDS011;1889;50.058;8.688;2022-10-31T04:51:02;9.70;;;4.75;;
3747;SDS011;1889;50.058;8.688;2022-10-31T04:53:31;7.17;;;4.95;;
3747;SDS011;1889;50.058;8.688;2022-10-31T04:56:01;4.65;;;3.83;;
3747;SDS011;1889;50.058;8.688;2022-10-31T04:58:30;5.50;;;4.40;;
3747;SDS011;1889;50.058;8.688;2022-10-31T05:01:00;7.53;;;5.20;;
3747;SDS011;1889;50.058;8.688;2022-10-31T05:03:29;9.78;;;4.53;;
3747;SDS011;1889;50.058;8.688;2022-10-31T05:05:58;6.53;;;4.12;;
3747;SDS011;1889;50.058;8.688;2022-10-31T05:08:27;5.22;;;3.80;;
3747;SDS011;1889;50.058;8.688;2022-10-31T05:11:01;5.42;;;4.72;;
3747;SDS011;1889;50.058;8.688;2022-10-31T05:13:31;6.62;;;4.28;;
3747;SDS011;1889;50.058;8.688;2022-10-31T05:16:00;6.12;;;4.47;;
3747;SDS011;1889;50.058;8.688;2022-10-31T05:18:30;5.95;;;3.85;;
3747;SDS011;1889;50.058;8.688;2022-10-31T05:20:59;6.75;;;4.03;;
3747;SDS011;1889;50.058;8.688;2022-10-31T05:23:29;7.58;;;4.62;;
3747;SDS011;1889;50.058;8.688;2022-10-31T05:25:58;7.47;;;4.40;;
3747;SDS011;1889;50.058;8.688;2022-10-31T05:28:27;7.80;;;4.33;;
3747;SDS011;1889;50.058;8.688;2022-10-31T05:30:57;6.40;;;3.87;;
3747;SDS011;1889;50.058;8.688;2022-10-31T05:33:26;8.13;;;5.00;;
3747;SDS011;1889;50.058;8.688;2022-10-31T05:35:56;8.68;;;4.50;;
3747;SDS011;1889;50.058;8.688;2022-10-31T05:38:25;6.33;;;4.30;;
3747;SDS011;1889;50.058;8.688;2022-10-31T05:40:55;6.05;;;4.47;;
3747;SDS011;1889;50.058;8.688;2022-10-31T05:43:26;8.53;;;4.45;;
3747;SDS011;1889;50.058;8.688;2022-10-31T05:45:55;7.80;;;4.70;;
3747;SDS011;1889;50.058;8.688;2022-10-31T05:48:25;6.33;;;4.28;;
3747;SDS011;1889;50.058;8.688;2022-10-31T05:50:54;5.78;;;3.98;;
3747;SDS011;1889;50.058;8.688;2022-10-31T05:53:24;6.17;;;4.25;;
3747;SDS011;1889;50.058;8.688;2022-10-31T05:55:53;6.22;;;4.30;;
3747;SDS011;1889;50.058;8.688;2022-10-31T05:58:22;7.70;;;4.60;;
3747;SDS011;1889;50.058;8.688;2022-10-31T06:00:52;6.78;;;4.85;;
3747;SDS011;1889;50.058;8.688;2022-10-31T06:03:22;8.38;;;4.35;;
3747;SDS011;1889;50.058;8.688;2022-10-31T06:05:51;6.00;;;4.17;;
3747;SDS011;1889;50.058;8.688;2022-10-31T06:08:20;8.60;;;4.75;;
3747;SDS011;1889;50.058;8.688;2022-10-31T06:10:49;7.75;;;4.58;;
3747;SDS011;1889;50.058;8.688;2022-10-31T06:13:21;6.53;;;4.65;;
3747;SDS011;1889;50.058;8.688;2022-10-31T06:15:50;10.82;;;4.58;;
3747;SDS011;1889;50.058;8.688;2022-10-31T06:18:19;6.90;;;5.12;;
3747;SDS011;1889;50.058;8.688;2022-10-31T06:20:49;5.45;;;4.42;;
3747;SDS011;1889;50.058;8.688;2022-10-31T06:23:18;7.20;;;4.60;;
3747;SDS011;1889;50.058;8.688;2022-10-31T06:25:50;6.03;;;4.85;;
3747;SDS011;1889;50.058;8.688;2022-10-31T06:28:20;8.40;;;5.25;;
3747;SDS011;1889;50.058;8.688;2022-10-31T06:30:49;8.00;;;5.35;;
3747;SDS011;1889;50.058;8.688;2022-10-31T06:33:18;7.62;;;4.90;;
3747;SDS011;1889;50.058;8.688;2022-10-31T06:35:48;7.87;;;4.58;;
3747;SDS011;1889;50.058;8.688;2022-10-31T06:38:18;8.15;;;4.92;;
3747;SDS011;1889;50.058;8.688;2022-10-31T06:40:49;8.60;;;5.10;;
3747;SDS011;1889;50.058;8.688;2022-10-31T06:43:18;7.90;;;4.72;;
3747;SDS011;1889;50.058;8.688;2022-10-31T06:45:48;6.55;;;4.85;;
3747;SDS011;1889;50.058;8.688;2022-10-31T06:48:17;6.60;;;5.35;;
3747;SDS011;1889;50.058;8.688;2022-10-31T06:50:47;5.87;;;4.20;;
3747;SDS011;1889;50.058;8.688;2022-10-31T06:53:18;5.53;;;4.42;;
3747;SDS011;1889;50.058;8.688;2022-10-31T06:55:47;5.58;;;4.78;;
3747;SDS011;1889;50.058;8.688;2022-10-31T06:58:16;7.83;;;4.58;;
3747;SDS011;1889;50.058;8.688;2022-10-31T07:00:46;6.25;;;4.55;;
3747;SDS011;1889;50.058;8.688;2022-10-31T07:03:15;6.25;;;5.53;;
3747;SDS011;1889;50.058;8.688;2022-10-31T07:05:44;7.10;;;5.17;;
3747;SDS011;1889;50.058;8.688;2022-10-31T07:08:14;6.95;;;5.20;;
3747;SDS011;1889;50.058;8.688;2022-10-31T07:10:50;7.08;;;4.65;;
3747;SDS011;1889;50.058;8.688;2022-10-31T07:13:16;9.60;;;4.62;;
3747;SDS011;1889;50.058;8.688;2022-10-31T07:15:45;8.20;;;4.85;;
3747;SDS011;1889;50.058;8.688;2022-10-31T07:18:14;5.87;;;4.65;;
3747;SDS011;1889;50.058;8.688;2022-10-31T07:20:44;7.53;;;4.37;;
3747;SDS011;1889;50.058;8.688;2022-10-31T07:23:13;7.37;;;4.80;;
3747;SDS011;1889;50.058;8.688;2022-10-31T07:25:42;10.25;;;4.97;;
3747;SDS011;1889;50.058;8.688;2022-10-31T07:28:12;5.53;;;4.70;;
3747;SDS011;1889;50.058;8.688;2022-10-31T07:30:41;7.25;;;4.83;;
3747;SDS011;1889;50.058;8.688;2022-10-31T07:33:11;7.58;;;4.47;;
3747;SDS011;1889;50.058;8.688;2022-10-31T07:35:40;6.25;;;4.35;;
3747;SDS011;1889;50.058;8.688;2022-10-31T07:38:10;9.00;;;4.47;;
3747;SDS011;1889;50.058;8.688;2022-10-31T07:40:41;6.53;;;4.90;;
3747;SDS011;1889;50.058;8.688;2022-10-31T07:43:11;6.00;;;5.03;;
3747;SDS011;1889;50.058;8.688;2022-10-31T07:45:40;5.75;;;4.17;;
3747;SDS011;1889;50.058;8.688;2022-10-31T07:48:10;6.50;;;4.72;;
3747;SDS011;1889;50.058;8.688;2022-10-31T07:50:39;8.58;;;4.17;;
3747;SDS011;1889;50.058;8.688;2022-10-31T07:53:09;9.13;;;5.12;;
3747;SDS011;1889;50.058;8.688;2022-10-31T07:55:40;6.65;;;4.70;;
3747;SDS011;1889;50.058;8.688;2022-10-31T07:58:11;9.90;;;4.78;;
3747;SDS011;1889;50.058;8.688;2022-10-31T08:00:43;6.45;;;4.67;;
3747;SDS011;1889;50.058;8.688;2022-10-31T08:03:14;6.42;;;4.67;;
3747;SDS011;1889;50.058;8.688;2022-10-31T08:05:45;5.67;;;4.35;;
3747;SDS011;1889;50.058;8.688;2022-10-31T08:08:15;5.83;;;4.67;;
3747;SDS011;1889;50.058;8.688;2022-10-31T08:10:44;5.95;;;4.28;;
3747;SDS011;1889;50.058;8.688;2022-10-31T08:13:13;8.93;;;4.78;;
3747;SDS011;1889;50.058;8.688;2022-10-31T08:15:43;5.45;;;4.40;;
3747;SDS011;1889;50.058;8.688;2022-10-31T08:18:14;5.72;;;3.98;;
3747;SDS011;1889;50.058;8.688;2022-10-31T08:20:44;5.33;;;4.25;;
3747;SDS011;1889;50.058;8.688;2022-10-31T08:23:13;6.12;;;4.25;;
3747;SDS011;1889;50.058;8.688;2022-10-31T08:25:43;11.35;;;5.25;;
3747;SDS011;1889;50.058;8.688;2022-10-31T08:28:14;9.25;;;4.97;;
3747;SDS011;1889;50.058;8.688;2022-10-31T08:30:43;6.30;;;4.87;;
3747;SDS011;1889;50.058;8.688;2022-10-31T08:33:15;5.50;;;4.22;;
3747;SDS011;1889;50.058;8.688;2022-10-31T08:35:45;6.62;;;4.50;;
3747;SDS011;1889;50.058;8.688;2022-10-31T08:38:15;7.55;;;5.20;;
3747;SDS011;1889;50.058;8.688;2022-10-31T08:40:47;8.75;;;5.28;;
3747;SDS011;1889;50.058;8.688;2022-10-31T08:43:17;13.58;;;6.33;;
3747;SDS011;1889;50.058;8.688;2022-10-31T08:45:49;11.57;;;6.08;;
3747;SDS011;1889;50.058;8.688;2022-10-31T08:48:21;6.20;;;5.60;;
3747;SDS011;1889;50.058;8.688;2022-10-31T08:50:50;6.87;;;6.00;;
3747;SDS011;1889;50.058;8.688;2022-10-31T08:53:26;7.33;;;6.10;;
3747;SDS011;1889;50.058;8.688;2022-10-31T08:55:50;9.65;;;5.92;;
3747;SDS011;1889;50.058;8.688;2022-10-31T08:58:21;11.68;;;6.55;;
3747;SDS011;1889;50.058;8.688;2022-10-31T09:00:53;10.00;;;6.45;;
3747;SDS011;1889;50.058;8.688;2022-10-31T09:03:24;9.00;;;6.45;;
3747;SDS011;1889;50.058;8.688;2022-10-31T09:05:55;13.10;;;7.20;;
3747;SDS011;1889;50.058;8.688;2022-10-31T09:08:28;11.22;;;6.87;;
3747;SDS011;1889;50.058;8.688;2022-10-31T09:10:58;9.38;;;6.37;;
3747;SDS011;1889;50.058;8.688;2022-10-31T09:13:28;8.98;;;6.15;;
3747;SDS011;1889;50.058;8.688;2022-10-31T09:15:57;11.33;;;6.35;;
3747;SDS011;1889;50.058;8.688;2022-10-31T09:18:27;6.28;;;5.67;;
3747;SDS011;1889;50.058;8.688;2022-10-31T09:20:57;9.15;;;6.70;;
3747;SDS011;1889;50.058;8.688;2022-10-31T09:23:27;9.50;;;7.10;;
3747;SDS011;1889;50.058;8.688;2022-10-31T09:25:58;8.50;;;6.72;;
3747;SDS011;1889;50.058;8.688;2022-10-31T09:28:28;10.78;;;6.80;;
3747;SDS011;1889;50.058;8.688;2022-10-31T09:30:59;7.78;;;6.75;;
3747;SDS011;1889;50.058;8.688;2022-10-31T09:33:28;9.68;;;6.65;;
3747;SDS011;1889;50.058;8.688;2022-10-31T09:35:58;10.25;;;7.08;;
3747;SDS011;1889;50.058;8.688;2022-10-31T09:38:27;10.28;;;7.05;;
3747;SDS011;1889;50.058;8.688;2022-10-31T09:41:07;9.18;;;6.97;;
3747;SDS011;1889;50.058;8.688;2022-10-31T09:46:21;11.70;;;7.72;;
3747;SDS011;1889;50.058;8.688;2022-10-31T09:49:16;10.35;;;7.53;;
3747;SDS011;1889;50.058;8.688;2022-10-31T09:51:43;8.45;;;6.85;;
3747;SDS011;1889;50.058;8.688;2022-10-31T09:54:25;10.95;;;7.35;;
3747;SDS011;1889;50.058;8.688;2022-10-31T09:56:50;9.08;;;7.08;;
3747;SDS011;1889;50.058;8.688;2022-10-31T09:59:36;9.30;;;6.78;;
3747;SDS011;1889;50.058;8.688;2022-10-31T10:02:16;9.03;;;6.42;;
3747;SDS011;1889;50.058;8.688;2022-10-31T10:04:51;9.63;;;6.92;;
3747;SDS011;1889;50.058;8.688;2022-10-31T10:10:50;8.78;;;6.28;;
3747;SDS011;1889;50.058;8.688;2022-10-31T10:28:54;8.60;;;6.08;;
3747;SDS011;1889;50.058;8.688;2022-10-31T10:31:31;7.12;;;5.45;;
3747;SDS011;1889;50.058;8.688;2022-10-31T10:34:16;9.60;;;6.08;;
3747;SDS011;1889;50.058;8.688;2022-10-31T10:36:50;9.38;;;5.50;;
3747;SDS011;1889;50.058;8.688;2022-10-31T10:39:24;8.68;;;5.33;;
3747;SDS011;1889;50.058;8.688;2022-10-31T10:41:55;8.45;;;5.62;;
3747;SDS011;1889;50.058;8.688;2022-10-31T10:44:45;6.50;;;5.37;;
3747;SDS011;1889;50.058;8.688;2022-10-31T10:47:44;8.68;;;5.50;;
3747;SDS011;1889;50.058;8.688;2022-10-31T10:50:16;6.58;;;5.03;;
3747;SDS011;1889;50.058;8.688;2022-10-31T10:52:50;6.75;;;4.62;;
3747;SDS011;1889;50.058;8.688;2022-10-31T10:55:44;8.25;;;5.35;;
3747;SDS011;1889;50.058;8.688;2022-10-31T10:58:15;6.95;;;5.35;;
3747;SDS011;1889;50.058;8.688;2022-10-31T11:00:45;8.48;;;4.80;;
3747;SDS011;1889;50.058;8.688;2022-10-31T11:03:17;5.75;;;5.12;;
3747;SDS011;1889;50.058;8.688;2022-10-31T11:08:27;8.68;;;6.00;;
3747;SDS011;1889;50.058;8.688;2022-10-31T11:13:31;9.20;;;6.62;;
3747;SDS011;1889;50.058;8.688;2022-10-31T11:16:03;9.03;;;5.92;;
3747;SDS011;1889;50.058;8.688;2022-10-31T11:18:37;7.47;;;5.40;;
3747;SDS011;1889;50.058;8.688;2022-10-31T11:21:17;10.32;;;5.70;;
3747;SDS011;1889;50.058;8.688;2022-10-31T11:24:01;8.50;;;5.53;;
3747;SDS011;1889;50.058;8.688;2022-10-31T11:26:38;8.98;;;5.97;;
3747;SDS011;1889;50.058;8.688;2022-10-31T11:29:13;7.80;;;5.55;;
3747;SDS011;1889;50.058;8.688;2022-10-31T11:31:44;6.78;;;5.40;;
3747;SDS011;1889;50.058;8.688;2022-10-31T11:34:18;9.73;;;5.58;;
3747;SDS011;1889;50.058;8.688;2022-10-31T11:37:01;7.22;;;5.70;;
3747;SDS011;1889;50.058;8.688;2022-10-31T11:39:32;7.62;;;5.75;;
3747;SDS011;1889;50.058;8.688;2022-10-31T11:42:03;5.83;;;4.85;;
3747;SDS011;1889;50.058;8.688;2022-10-31T11:44:32;6.58;;;5.85;;
3747;SDS011;1889;50.058;8.688;2022-10-31T11:47:09;10.25;;;7.35;;
3747;SDS011;1889;50.058;8.688;2022-10-31T11:49:46;5.95;;;5.10;;
3747;SDS011;1889;50.058;8.688;2022-10-31T11:52:20;7.40;;;5.12;;
3747;SDS011;1889;50.058;8.688;2022-10-31T11:54:54;8.25;;;5.55;;
3747;SDS011;1889;50.058;8.688;2022-10-31T11:57:29;7.20;;;4.85;;
3747;SDS011;1889;50.058;8.688;2022-10-31T12:00:03;4.95;;;4.30;;
3747;SDS011;1889;50.058;8.688;2022-10-31T12:02:34;8.50;;;4.60;;
3747;SDS011;1889;50.058;8.688;2022-10-31T12:05:06;6.08;;;4.72;;
3747;SDS011;1889;50.058;8.688;2022-10-31T12:07:38;5.90;;;4.70;;
3747;SDS011;1889;50.058;8.688;2022-10-31T12:10:11;5.15;;;4.42;;
3747;SDS011;1889;50.058;8.688;2022-10-31T12:12:47;5.53;;;4.35;;
3747;SDS011;1889;50.058;8.688;2022-10-31T12:18:00;10.40;;;5.20;;
3747;SDS011;1889;50.058;8.688;2022-10-31T12:23:38;7.15;;;4.67;;
3747;SDS011;1889;50.058;8.688;2022-10-31T12:29:07;8.95;;;4.65;;
3747;SDS011;1889;50.058;8.688;2022-10-31T12:32:37;7.72;;;4.45;;
3747;SDS011;1889;50.058;8.688;2022-10-31T12:37:30;7.83;;;4.10;;
3747;SDS011;1889;50.058;8.688;2022-10-31T12:43:12;5.28;;;4.58;;
3747;SDS011;1889;50.058;8.688;2022-10-31T12:45:56;10.28;;;4.42;;
3747;SDS011;1889;50.058;8.688;2022-10-31T12:54:12;4.67;;;3.70;;
3747;SDS011;1889;50.058;8.688;2022-10-31T12:59:50;6.03;;;4.33;;
3747;SDS011;1889;50.058;8.688;2022-10-31T13:02:22;5.20;;;3.95;;
3747;SDS011;1889;50.058;8.688;2022-10-31T13:05:05;4.80;;;3.37;;
3747;SDS011;1889;50.058;8.688;2022-10-31T13:13:16;4.15;;;3.50;;
3747;SDS011;1889;50.058;8.688;2022-10-31T13:15:50;8.55;;;4.47;;
3747;SDS011;1889;50.058;8.688;2022-10-31T13:18:28;7.30;;;3.70;;
3747;SDS011;1889;50.058;8.688;2022-10-31T13:21:01;6.92;;;4.30;;
3747;SDS011;1889;50.058;8.688;2022-10-31T13:23:32;6.67;;;4.00;;
3747;SDS011;1889;50.058;8.688;2022-10-31T13:26:12;7.40;;;4.55;;
3747;SDS011;1889;50.058;8.688;2022-10-31T13:28:50;7.17;;;5.00;;
3747;SDS011;1889;50.058;8.688;2022-10-31T13:31:20;6.33;;;4.12;;
3747;SDS011;1889;50.058;8.688;2022-10-31T13:33:54;5.58;;;3.85;;
3747;SDS011;1889;50.058;8.688;2022-10-31T13:36:25;5.75;;;3.77;;
3747;SDS011;1889;50.058;8.688;2022-10-31T13:39:20;5.97;;;4.22;;
3747;SDS011;1889;50.058;8.688;2022-10-31T13:41:57;11.08;;;5.60;;
3747;SDS011;1889;50.058;8.688;2022-10-31T13:44:28;6.15;;;3.85;;
3747;SDS011;1889;50.058;8.688;2022-10-31T13:46:58;6.03;;;4.40;;
3747;SDS011;1889;50.058;8.688;2022-10-31T13:54:45;7.95;;;3.62;;
3747;SDS011;1889;50.058;8.688;2022-10-31T13:57:18;8.40;;;4.25;;
3747;SDS011;1889;50.058;8.688;2022-10-31T13:59:57;7.05;;;4.10;;
3747;SDS011;1889;50.058;8.688;2022-10-31T14:02:29;7.33;;;4.58;;
3747;SDS011;1889;50.058;8.688;2022-10-31T14:05:51;10.65;;;4.42;;
3747;SDS011;1889;50.058;8.688;2022-10-31T14:07:33;5.90;;;4.10;;
3747;SDS011;1889;50.058;8.688;2022-10-31T14:10:06;6.75;;;4.35;;
3747;SDS011;1889;50.058;8.688;2022-10-31T14:12:38;5.72;;;4.22;;
3747;SDS011;1889;50.058;8.688;2022-10-31T14:15:19;8.25;;;4.70;;
3747;SDS011;1889;50.058;8.688;2022-10-31T14:17:54;6.65;;;4.95;;
3747;SDS011;1889;50.058;8.688;2022-10-31T14:26:18;6.75;;;4.55;;
3747;SDS011;1889;50.058;8.688;2022-10-31T14:28:56;7.67;;;4.67;;
3747;SDS011;1889;50.058;8.688;2022-10-31T14:32:20;6.75;;;4.92;;
3747;SDS011;1889;50.058;8.688;2022-10-31T14:34:36;6.37;;;4.80;;
3747;SDS011;1889;50.058;8.688;2022-10-31T14:37:32;7.75;;;5.35;;
3747;SDS011;1889;50.058;8.688;2022-10-31T14:40:18;5.85;;;4.90;;
3747;SDS011;1889;50.058;8.688;2022-10-31T14:51:00;7.22;;;5.40;;
3747;SDS011;1889;50.058;8.688;2022-10-31T14:53:33;9.50;;;4.80;;
3747;SDS011;1889;50.058;8.688;2022-10-31T14:56:10;7.83;;;4.92;;
3747;SDS011;1889;50.058;8.688;2022-10-31T14:58:42;6.65;;;4.90;;
3747;SDS011;1889;50.058;8.688;2022-10-31T15:04:16;9.08;;;5.17;;
3747;SDS011;1889;50.058;8.688;2022-10-31T15:06:48;8.35;;;5.42;;
3747;SDS011;1889;50.058;8.688;2022-10-31T15:11:54;6.92;;;5.00;;
3747;SDS011;1889;50.058;8.688;2022-10-31T15:14:27;10.28;;;4.92;;
3747;SDS011;1889;50.058;8.688;2022-10-31T15:17:01;7.15;;;4.67;;
3747;SDS011;1889;50.058;8.688;2022-10-31T15:19:32;8.00;;;4.40;;
3747;SDS011;1889;50.058;8.688;2022-10-31T15:22:04;8.18;;;4.22;;
3747;SDS011;1889;50.058;8.688;2022-10-31T15:24:39;6.50;;;4.78;;
3747;SDS011;1889;50.058;8.688;2022-10-31T15:27:15;5.95;;;4.42;;
3747;SDS011;1889;50.058;8.688;2022-10-31T15:29:57;4.97;;;4.10;;
3747;SDS011;1889;50.058;8.688;2022-10-31T15:32:27;7.28;;;4.62;;
3747;SDS011;1889;50.058;8.688;2022-10-31T15:34:57;7.03;;;4.80;;
3747;SDS011;1889;50.058;8.688;2022-10-31T15:37:26;5.12;;;4.17;;
3747;SDS011;1889;50.058;8.688;2022-10-31T15:39:56;6.65;;;4.00;;
3747;SDS011;1889;50.058;8.688;2022-10-31T15:42:30;4.62;;;3.77;;
3747;SDS011;1889;50.058;8.688;2022-10-31T15:45:02;7.67;;;4.37;;
3747;SDS011;1889;50.058;8.688;2022-10-31T15:47:33;4.62;;;3.50;;
3747;SDS011;1889;50.058;8.688;2022-10-31T15:50:05;8.13;;;4.87;;
3747;SDS011;1889;50.058;8.688;2022-10-31T15:52:43;9.90;;;4.35;;
3747;SDS011;1889;50.058;8.688;2022-10-31T15:55:17;11.80;;;4.40;;
3747;SDS011;1889;50.058;8.688;2022-10-31T15:58:03;5.25;;;4.35;;
3747;SDS011;1889;50.058;8.688;2022-10-31T16:03:31;8.08;;;4.80;;
3747;SDS011;1889;50.058;8.688;2022-10-31T16:06:02;5.95;;;4.10;;
3747;SDS011;1889;50.058;8.688;2022-10-31T16:08:34;5.45;;;4.12;;
3747;SDS011;1889;50.058;8.688;2022-10-31T16:14:04;6.83;;;4.17;;
3747;SDS011;1889;50.058;8.688;2022-10-31T16:16:33;8.85;;;4.50;;
3747;SDS011;1889;50.058;8.688;2022-10-31T16:19:05;7.15;;;4.62;;
3747;SDS011;1889;50.058;8.688;2022-10-31T16:21:36;11.00;;;5.25;;
3747;SDS011;1889;50.058;8.688;2022-10-31T16:24:16;6.47;;;4.90;;
3747;SDS011;1889;50.058;8.688;2022-10-31T16:26:48;6.12;;;5.47;;
3747;SDS011;1889;50.058;8.688;2022-10-31T16:29:24;10.23;;;6.00;;
3747;SDS011;1889;50.058;8.688;2022-10-31T16:31:54;10.05;;;5.47;;
3747;SDS011;1889;50.058;8.688;2022-10-31T16:34:23;8.08;;;5.45;;
3747;SDS011;1889;50.058;8.688;2022-10-31T16:36:53;7.95;;;5.47;;
3747;SDS011;1889;50.058;8.688;2022-10-31T16:39:22;5.70;;;5.20;;
3747;SDS011;1889;50.058;8.688;2022-10-31T16:41:52;8.90;;;5.33;;
3747;SDS011;1889;50.058;8.688;2022-10-31T16:44:25;8.05;;;6.08;;
3747;SDS011;1889;50.058;8.688;2022-10-31T16:47:08;9.00;;;5.97;;
3747;SDS011;1889;50.058;8.688;2022-10-31T16:49:39;9.20;;;5.47;;
3747;SDS011;1889;50.058;8.688;2022-10-31T16:52:09;8.58;;;5.67;;
3747;SDS011;1889;50.058;8.688;2022-10-31T16:54:39;5.75;;;5.03;;
3747;SDS011;1889;50.058;8.688;2022-10-31T16:57:13;11.33;;;5.03;;
3747;SDS011;1889;50.058;8.688;2022-10-31T16:59:44;8.55;;;5.20;;
3747;SDS011;1889;50.058;8.688;2022-10-31T17:02:15;7.33;;;5.58;;
3747;SDS011;1889;50.058;8.688;2022-10-31T17:04:45;12.25;;;7.12;;
3747;SDS011;1889;50.058;8.688;2022-10-31T17:07:14;8.73;;;7.73;;
3747;SDS011;1889;50.058;8.688;2022-10-31T17:09:43;10.00;;;6.77;;
3747;SDS011;1889;50.058;8.688;2022-10-31T17:12:14;10.18;;;6.17;;
3747;SDS011;1889;50.058;8.688;2022-10-31T17:14:46;10.85;;;8.05;;
3747;SDS011;1889;50.058;8.688;2022-10-31T17:17:17;5.90;;;5.30;;
3747;SDS011;1889;50.058;8.688;2022-10-31T17:19:47;10.25;;;7.85;;
3747;SDS011;1889;50.058;8.688;2022-10-31T17:22:16;7.17;;;5.12;;
3747;SDS011;1889;50.058;8.688;2022-10-31T17:24:45;9.35;;;4.87;;
3747;SDS011;1889;50.058;8.688;2022-10-31T17:27:15;5.83;;;4.80;;
3747;SDS011;1889;50.058;8.688;2022-10-31T17:29:45;6.87;;;5.15;;
3747;SDS011;1889;50.058;8.688;2022-10-31T17:32:14;6.85;;;5.40;;
3747;SDS011;1889;50.058;8.688;2022-10-31T17:34:44;7.03;;;5.50;;
3747;SDS011;1889;50.058;8.688;2022-10-31T17:37:13;9.08;;;6.83;;
3747;SDS011;1889;50.058;8.688;2022-10-31T17:39:43;9.58;;;6.08;;
3747;SDS011;1889;50.058;8.688;2022-10-31T17:42:12;8.20;;;6.95;;